Date,TemperatureHighF,TemperatureAvgF,TemperatureLowF,DewpointHighF,DewpointAvgF,DewpointLowF,HumidityHigh,HumidityAvg,HumidityLow,PressureMaxIn,PressureMinIn,WindSpeedMaxMPH,WindSpeedAvgMPH,GustSpeedMaxMPH,PrecipitationSumIn
2013-1-1,54.0,44.0,32.0,32.6,27.6,19.8,88,54,35,28.99,28.78,9,2,9,0.00
2013-1-2,60.0,48.7,36.0,23.8,18.1,12.0,54,31,16,28.85,28.63,10,3,10,0.00
2013-1-3,61.0,51.7,41.0,21.6,13.3,9.9,44,22,15,28.90,28.70,12,3,12,0.00
2013-1-4,58.0,47.5,38.0,22.4,18.3,12.9,46,32,21,28.99,28.83,14,2,14,0.00
2013-1-5,60.0,46.6,34.0,26.6,22.3,16.7,67,41,20,29.05,28.83,10,1,10,0.00
2013-1-6,63.0,50.2,39.0,29.9,23.0,17.6,60,37,18,28.89,28.55,12,3,12,0.00
2013-1-7,59.0,49.7,37.0,28.2,25.9,21.6,66,41,27,28.66,28.49,9,2,9,0.00
2013-1-8,55.0,50.8,47.0,26.3,25.4,18.8,41,37,24,28.77,28.56,6,0,6,0.00
2013-1-9,64.0,53.3,41.0,31.1,27.1,21.6,57,38,27,28.87,28.63,6,1,6,0.00
2013-1-10,60.0,54.2,48.0,43.4,26.1,18.8,81,34,24,28.67,28.43,20,6,20,0.01
2013-1-11,51.0,41.2,34.0,24.5,15.8,1.0,57,38,13,28.77,28.54,18,3,18,0.00
2013-1-12,50.0,38.3,27.0,16.8,10.8,4.1,62,34,18,28.86,28.72,12,2,12,0.00
2013-1-13,47.0,35.3,24.0,17.3,9.7,4.0,68,36,18,28.93,28.74,9,1,9,0.00
2013-1-14,43.0,34.3,24.0,11.6,6.8,2.9,50,32,19,29.01,28.80,10,2,10,0.00
2013-1-15,49.0,38.3,26.0,7.7,1.2,-6.9,41,22,10,29.16,28.98,10,3,10,0.00
2013-1-16,59.0,45.0,32.0,19.0,12.5,4.3,44,28,17,29.12,28.85,9,2,9,0.00
2013-1-17,68.0,56.0,39.0,25.0,19.5,16.9,45,27,15,28.94,28.77,16,3,16,0.00
2013-1-18,71.0,58.8,45.0,28.4,21.8,16.6,47,25,13,28.89,28.67,9,1,9,0.00
2013-1-19,71.0,56.9,42.0,27.1,24.2,21.0,51,30,15,28.90,28.69,7,2,7,0.00
2013-1-20,72.0,57.1,44.0,26.5,21.6,16.3,47,27,12,28.85,28.58,8,1,8,0.00
2013-1-21,76.0,58.8,45.0,25.4,20.6,15.3,38,24,11,28.77,28.56,8,1,8,0.00
2013-1-22,76.0,61.0,46.0,26.5,21.4,15.3,40,23,12,28.82,28.62,7,2,7,0.00
2013-1-23,61.0,53.0,48.0,31.2,26.7,22.9,47,36,27,28.83,28.77,6,0,6,0.00
2013-1-24,62.0,58.3,56.0,49.2,47.8,46.0,76,68,60,28.83,28.78,7,1,7,0.00
2013-1-25,75.0,63.2,54.0,57.4,48.9,43.0,81,62,33,28.81,28.56,9,2,9,0.02
2013-1-26,63.0,59.7,58.0,58.4,57.2,53.6,100,92,72,28.59,28.51,15,6,15,0.70
2013-1-28,56.0,49.0,40.0,39.0,35.8,31.6,89,61,46,28.74,28.63,16,4,16,0.70
2013-1-29,56.0,45.4,33.0,36.4,30.2,22.3,96,60,28,28.90,28.69,15,3,15,0.00
2013-1-30,59.0,47.9,37.0,37.5,30.3,19.5,89,55,23,29.04,28.86,9,2,9,0.00
2013-1-31,67.0,51.9,37.0,40.0,34.7,30.1,89,56,26,28.96,28.69,8,2,8,0.00
2013-2-1,69.0,55.5,42.0,41.8,36.9,29.6,91,54,24,28.88,28.70,8,1,8,0.00
2013-2-2,73.0,58.5,44.0,43.2,37.7,33.2,84,50,24,28.93,28.67,10,2,10,0.00
2013-2-3,67.0,61.9,58.0,48.3,40.9,36.8,64,47,34,28.74,28.55,9,2,9,0.00
2013-2-4,72.0,62.3,54.0,50.0,45.3,38.8,81,56,33,28.66,28.50,10,2,10,0.00
2013-2-5,72.0,60.0,48.0,45.9,41.2,32.5,85,54,26,28.67,28.48,9,2,9,0.00
2013-2-6,71.0,59.4,49.0,44.8,42.5,40.1,82,56,34,28.66,28.49,12,1,12,0.00
2013-2-7,71.0,58.8,47.0,47.4,40.6,34.9,85,54,29,28.76,28.55,12,2,12,0.00
2013-2-8,67.0,58.3,51.0,41.4,32.1,18.7,67,39,22,28.58,28.40,20,7,20,0.00
2013-2-9,56.0,49.3,41.0,38.5,31.7,24.8,86,53,31,28.71,28.45,23,5,23,0.00
2013-2-10,59.0,48.5,37.0,34.3,29.6,25.0,84,50,30,28.75,28.59,12,3,12,0.00
2013-2-11,53.0,44.4,38.0,41.3,34.9,29.1,92,70,49,28.89,28.66,16,3,16,0.06
2013-2-12,57.0,45.7,35.0,37.9,31.2,21.4,100,62,29,29.00,28.84,10,2,10,0.00
2013-2-13,62.0,48.4,35.0,31.2,25.9,18.4,79,45,19,28.91,28.72,12,2,12,0.00
2013-2-14,68.0,54.7,38.0,33.4,28.5,23.2,74,39,20,28.85,28.63,9,1,9,0.00
2013-2-15,75.0,61.5,45.0,30.5,20.4,10.3,54,24,10,28.88,28.71,9,2,9,0.00
2013-2-16,77.0,63.6,49.0,25.9,16.7,6.7,33,18,7,28.92,28.54,16,2,16,0.00
2013-2-17,72.0,59.3,46.0,26.7,19.6,10.9,43,23,10,28.62,28.41,13,3,13,0.00
2013-2-18,72.0,60.6,46.0,27.3,19.3,13.0,40,22,11,28.70,28.50,12,3,12,0.00
2013-2-19,71.0,63.1,55.0,31.4,20.8,13.0,39,20,11,28.52,28.26,15,7,15,0.00
2013-2-20,56.0,44.9,38.0,46.2,39.7,31.1,100,84,39,28.67,28.33,16,5,16,0.90
2013-2-21,57.0,47.2,39.0,38.8,35.8,32.3,90,66,43,28.73,28.60,14,4,14,0.00
2013-2-22,60.0,48.9,36.0,42.8,31.3,20.5,100,57,24,28.83,28.69,12,2,12,0.00
2013-2-23,64.0,51.6,38.0,35.2,29.2,23.7,80,45,23,28.83,28.45,12,3,12,0.00
2013-2-24,60.0,52.9,44.0,34.5,14.0,0.1,56,24,9,28.78,28.49,24,10,24,0.00
2013-2-25,64.0,50.4,36.0,23.5,17.5,10.9,56,29,15,28.93,28.68,9,2,9,0.00
2013-2-26,68.0,52.3,35.0,29.0,20.6,5.6,71,34,12,28.75,28.54,10,2,10,0.00
2013-2-27,67.0,57.0,45.0,15.6,9.2,3.3,27,15,9,28.89,28.73,13,4,13,0.00
2013-2-28,72.0,56.7,42.0,21.6,11.7,3.6,33,18,8,28.99,28.80,12,3,12,0.00
2013-3-1,78.0,60.8,44.0,29.8,21.7,16.2,43,24,11,29.00,28.73,8,2,9,0.00
2013-3-2,84.0,63.8,49.0,35.0,29.3,16.1,53,31,9,28.94,28.62,8,2,7,0.00
2013-3-3,76.0,62.9,49.0,37.7,32.3,28.6,59,34,18,28.73,28.48,13,2,13,0.00
2013-3-4,66.0,57.9,51.0,37.2,34.8,27.6,57,43,28,28.69,28.49,15,1,6,0.00
2013-3-5,78.0,64.3,50.0,41.2,34.2,22.4,67,36,14,28.75,28.51,14,3,14,0.00
2013-3-6,80.0,65.5,52.0,39.5,32.7,25.7,58,32,14,28.65,28.41,12,2,12,0.00
2013-3-7,79.0,64.3,50.0,38.9,32.0,26.5,58,33,16,28.59,28.40,12,2,12,0.00
2013-3-8,68.0,54.8,45.0,53.5,44.2,27.3,96,72,25,28.66,28.36,23,7,23,0.65
2013-3-9,57.0,50.0,41.0,43.4,40.7,37.6,100,72,53,28.74,28.66,10,3,10,0.00
2013-3-10,72.0,57.0,41.0,47.2,39.1,27.9,100,57,22,28.87,28.64,12,2,12,0.00
2013-3-11,77.0,62.2,43.0,43.6,34.2,21.6,89,43,13,28.85,28.57,9,2,9,0.00
2013-3-12,82.0,69.1,60.0,40.8,30.2,25.5,49,24,13,28.68,28.52,7,0,7,0.00
2013-3-13,89.0,70.8,53.0,44.2,35.2,17.8,65,33,8,28.76,28.50,12,2,12,0.00
2013-3-14,92.0,73.9,57.0,41.4,33.0,17.7,50,27,7,28.72,28.46,15,2,15,0.00
2013-3-15,91.0,74.6,56.0,44.7,33.4,19.3,59,27,8,28.62,28.37,12,2,12,0.00
2013-3-16,88.0,76.9,64.0,34.5,28.9,18.3,29,18,10,28.45,28.24,15,4,15,0.00
2013-3-17,85.0,72.0,60.0,38.0,27.3,15.3,44,21,8,28.46,28.29,12,4,12,0.00
2013-3-18,84.0,70.2,56.0,36.5,30.2,20.7,38,24,12,28.57,28.41,13,3,13,0.00
2013-3-19,84.0,70.9,59.0,43.1,33.8,25.5,52,28,13,28.61,28.44,10,2,10,0.00
2013-3-20,83.0,70.6,56.0,41.4,35.1,29.8,54,30,16,28.64,28.37,12,3,12,0.00
2013-3-21,84.0,72.6,63.0,43.4,34.7,28.9,41,26,15,28.40,28.21,12,2,12,0.00
2013-3-22,83.0,70.4,56.0,41.7,32.9,18.8,53,27,13,28.40,28.20,15,3,15,0.00
2013-3-23,78.0,64.6,53.0,22.4,9.7,-10.5,28,14,3,28.61,28.40,15,4,15,0.00
2013-3-24,76.0,65.5,48.0,25.9,12.7,8.2,31,14,8,28.67,28.53,7,2,7,0.00
2013-3-25,68.0,64.8,60.0,26.4,21.0,17.8,27,19,15,28.54,28.51,1,0,0,0.00
2013-3-26,89.0,71.0,56.0,33.4,23.7,11.2,37,19,6,28.57,28.30,14,3,14,0.00
2013-3-27,69.0,67.1,61.0,27.1,20.1,17.0,26,17,14,28.54,28.44,10,1,10,0.00
2013-3-28,84.0,67.7,58.0,32.7,26.7,21.5,37,23,10,28.61,28.46,9,0,9,0.00
2013-3-29,87.0,71.3,65.0,31.0,25.1,17.1,26,18,8,28.63,28.48,8,0,8,0.00
2013-3-30,88.0,72.6,61.0,38.9,29.9,19.8,42,23,9,28.64,28.42,10,2,10,0.00
2013-3-31,90.0,72.1,54.0,38.6,31.4,21.5,53,25,10,28.64,28.38,12,3,12,0.00
2013-4-1,83.0,71.3,59.0,42.5,32.0,15.6,46,26,9,28.59,28.41,16,3,16,0.00
2013-4-2,85.0,68.9,52.3,33.6,26.4,17.6,39,22,9,28.58,28.35,17,3,17,0.00
2013-4-3,88.0,74.0,60.0,35.3,30.4,25.4,38,21,11,28.62,28.42,12,2,12,0.00
2013-4-4,90.0,72.9,57.0,40.3,31.6,17.8,49,25,9,28.67,28.41,12,2,12,0.00
2013-4-5,89.0,75.6,63.0,38.3,31.1,23.0,40,21,11,28.53,28.34,16,3,16,0.00
2013-4-6,89.0,73.7,59.0,37.0,31.6,24.6,38,23,11,28.57,28.32,12,3,12,0.00
2013-4-7,89.0,74.2,59.0,38.9,34.0,28.2,44,25,12,28.47,28.24,12,3,13,0.00
2013-4-8,81.0,69.1,56.0,47.7,38.1,29.8,66,34,16,28.27,27.95,25,8,25,0.07
2013-4-9,74.0,62.5,53.0,49.3,32.6,18.8,84,39,16,28.52,28.20,17,6,17,0.03
2013-4-10,78.0,63.9,49.0,33.7,26.6,20.4,42,25,13,28.63,28.46,15,4,15,0.00
2013-4-11,83.0,69.2,53.0,35.6,26.8,16.1,46,22,9,28.60,28.28,14,5,14,0.00
2013-4-12,89.0,71.8,53.0,37.4,27.1,17.8,52,22,8,28.44,28.21,12,2,12,0.00
2013-4-13,90.0,74.3,56.0,36.5,27.2,19.1,39,20,9,28.45,28.18,17,4,17,0.00
2013-4-14,89.0,75.1,61.0,34.5,29.4,21.3,31,20,9,28.34,28.11,16,5,16,0.00
2013-4-15,86.0,72.9,60.0,39.7,34.1,28.0,40,25,15,28.36,28.18,20,5,20,0.00
2013-4-16,80.0,68.8,57.0,45.9,35.3,15.3,50,31,13,28.42,28.25,20,5,20,0.00
2013-4-17,74.0,64.3,55.0,30.3,18.0,0.4,37,19,6,28.64,28.41,20,7,20,0.00
2013-4-18,78.0,63.9,49.0,18.5,11.9,3.2,26,14,8,28.78,28.61,13,5,13,0.00
2013-4-19,84.0,67.1,49.0,22.4,10.2,-1.9,28,12,4,28.83,28.47,10,2,10,0.00
2013-4-20,90.0,72.8,52.0,25.9,17.0,9.1,32,14,6,28.59,28.32,15,4,15,0.00
2013-4-21,95.0,75.8,57.0,33.6,21.7,6.4,34,16,4,28.62,28.36,12,2,12,0.00
2013-4-22,95.0,78.5,63.0,29.0,21.0,12.8,26,13,5,28.54,28.23,15,4,15,0.00
2013-4-23,93.0,77.6,63.0,31.1,23.7,13.8,28,14,8,28.44,28.24,13,3,13,0.00
2013-4-24,92.0,77.6,60.0,32.2,24.5,17.6,27,15,8,28.49,28.29,12,3,12,0.00
2013-4-25,85.0,73.3,65.0,40.2,31.0,23.4,29,21,13,28.61,28.40,18,5,18,0.00
2013-4-26,92.0,75.0,58.0,40.7,31.1,22.1,49,23,9,28.71,28.47,12,2,12,0.00
2013-4-27,98.0,82.1,68.0,34.9,23.1,12.1,26,12,5,28.64,28.33,13,3,13,0.00
2013-4-28,101.0,81.6,61.0,34.7,19.3,2.8,36,13,3,28.49,28.18,10,2,10,0.00
2013-4-29,103.0,84.4,64.0,35.7,20.1,10.5,31,11,4,28.38,28.07,15,4,15,0.00
2013-4-30,98.0,84.5,70.0,25.9,18.5,9.8,17,9,4,28.32,28.11,17,6,17,0.00
2013-5-1,94.0,80.4,64.0,29.4,21.2,10.4,22,12,6,28.50,28.32,13,4,13,0.00
2013-5-2,93.0,81.3,70.0,16.2,2.7,-5.2,10,5,3,28.71,28.46,14,5,14,0.00
2013-5-3,91.0,78.2,69.0,26.6,16.5,-2.5,19,10,4,28.64,28.31,17,6,17,0.00
2013-5-4,96.0,79.0,62.0,37.9,20.2,7.1,33,14,4,28.38,28.12,12,4,12,0.00
2013-5-5,92.0,78.9,71.0,31.0,23.0,12.7,18,13,6,28.44,28.26,20,6,20,0.00
2013-5-6,86.0,76.2,68.0,45.2,40.0,24.1,41,28,16,28.53,28.35,12,5,12,0.00
2013-5-7,84.0,76.4,64.0,46.5,40.1,34.4,53,28,20,28.59,28.41,13,4,13,0.00
2013-5-8,83.0,71.4,60.0,40.7,36.8,31.9,46,29,18,28.63,28.46,12,3,12,0.00
2013-5-9,88.0,74.4,61.0,44.9,35.9,28.6,43,26,13,28.58,28.38,16,3,16,0.00
2013-5-10,96.0,79.7,62.0,41.4,33.6,23.6,44,21,8,28.56,28.35,48,3,48,0.00
2013-5-11,94.0,82.3,67.0,42.0,33.4,23.0,37,19,8,28.62,28.43,16,4,16,0.00
2013-5-12,100.0,85.1,71.0,38.9,32.4,25.9,30,16,8,28.69,28.36,16,4,16,0.00
2013-5-13,103.0,87.3,73.0,37.9,30.7,22.0,27,14,6,28.58,28.29,13,4,13,0.00
2013-5-14,102.0,89.3,78.0,37.8,28.9,20.7,20,12,8,28.47,28.22,20,7,20,0.00
2013-5-15,98.4,87.5,74.0,38.6,32.3,25.3,25,15,9,28.47,28.24,15,5,15,0.00
2013-5-16,100.0,84.7,71.0,37.6,26.2,11.2,26,14,4,28.44,28.18,15,5,15,0.00
2013-5-17,92.0,80.9,66.0,33.2,26.4,15.3,23,14,10,28.43,28.28,15,4,15,0.00
2013-5-18,91.0,82.0,74.0,47.0,37.0,29.7,38,21,12,28.48,28.31,16,4,16,0.00
2013-5-19,96.0,79.8,67.0,44.6,36.0,29.1,42,22,11,28.48,28.21,13,2,17,0.00
2013-5-20,93.0,81.6,68.0,37.3,24.8,12.6,32,15,6,28.45,28.26,17,3,19,0.00
2013-5-21,99.0,82.0,65.0,37.0,24.3,12.0,29,14,5,28.48,28.20,13,2,13,0.00
2013-5-22,103.0,85.5,70.0,30.1,21.7,13.1,22,11,5,28.32,28.05,16,3,17,0.00
2013-5-23,100.0,85.0,72.0,34.4,26.4,19.9,19,12,7,28.34,28.16,17,2,17,0.00
2013-5-24,100.0,86.1,70.0,32.3,23.0,11.1,24,11,6,28.47,28.25,16,2,16,0.00
2013-5-25,100.0,87.0,68.0,33.3,22.0,16.1,25,10,6,28.50,28.26,12,2,14,0.00
2013-5-26,96.0,82.7,65.0,28.9,20.6,12.7,24,11,6,28.49,28.30,10,2,10,0.00
2013-5-27,94.0,80.0,67.0,40.7,28.8,19.9,37,17,8,28.46,28.21,10,1,10,0.00
2013-5-28,97.0,81.5,66.0,39.6,32.1,22.9,34,18,8,28.31,28.06,16,2,18,0.00
2013-5-29,97.0,83.7,69.0,47.4,38.7,31.3,34,22,13,28.28,28.10,16,2,16,0.00
2013-5-30,100.0,85.9,72.0,52.4,44.4,36.3,42,25,12,28.35,28.18,14,3,15,0.00
2013-5-31,93.0,82.6,76.0,53.6,44.0,31.6,44,28,13,28.37,28.22,7,1,9,0.00
2013-6-1,109.0,91.0,75.0,51.4,37.4,18.2,41,19,5,28.36,28.10,9,1,10,0.00
2013-6-2,108.0,92.5,78.0,46.5,35.6,23.9,30,15,6,28.29,28.03,12,2,14,0.00
2013-6-3,104.0,89.9,78.0,35.6,27.9,19.7,19,12,6,28.31,28.13,13,3,13,0.00
2013-6-4,104.0,93.1,78.0,39.9,29.1,20.4,24,11,6,28.36,28.16,10,2,10,0.00
2013-6-5,106.0,88.7,73.0,36.9,28.8,18.9,24,13,5,28.41,28.14,13,1,13,0.00
2013-6-6,109.0,91.2,75.0,41.3,28.4,16.5,28,12,4,28.33,28.05,14,1,14,0.00
2013-6-7,112.0,94.5,77.0,41.1,28.5,19.2,26,11,4,28.30,28.01,15,2,15,0.00
2013-6-8,106.0,92.6,78.0,38.2,27.8,19.6,24,11,5,28.30,28.13,16,3,16,0.00
2013-6-9,107.0,91.4,77.0,37.6,26.5,7.3,22,11,3,28.41,28.17,13,2,14,0.00
2013-6-10,109.0,92.4,78.0,37.7,24.1,8.0,22,10,3,28.38,28.14,12,2,12,0.00
2013-6-11,107.0,91.5,77.0,36.9,28.5,19.7,21,11,6,28.40,28.18,13,1,13,0.00
2013-6-12,111.0,96.4,80.0,39.9,31.5,21.7,22,11,5,28.38,28.18,14,2,14,0.00
2013-6-13,104.0,92.1,80.0,44.8,41.6,38.2,27,18,13,28.43,28.18,15,3,16,0.00
2013-6-14,96.0,88.3,85.0,41.0,37.8,34.0,20,17,12,28.28,28.16,6,0,9,0.00
2013-6-15,105.0,93.8,82.0,41.8,34.5,28.5,23,13,8,28.34,28.17,13,2,13,0.00
2013-6-16,106.0,90.9,76.0,38.2,27.8,20.3,24,11,5,28.44,28.22,12,2,12,0.00
2013-6-17,107.0,91.3,75.0,41.0,25.7,13.1,26,11,4,28.43,28.19,12,1,13,0.00
2013-6-18,108.0,91.1,76.0,34.2,22.5,8.6,18,9,3,28.36,28.10,11,2,12,0.00
2013-6-19,106.0,92.5,72.0,37.9,21.0,12.4,29,9,4,28.31,28.08,13,2,17,0.00
2013-6-20,105.0,89.7,75.0,33.6,25.8,18.2,21,11,5,28.32,28.13,12,2,17,0.00
2013-6-21,105.0,88.8,72.0,32.6,23.8,13.1,22,10,4,28.37,28.14,12,2,15,0.00
2013-6-22,104.0,85.7,74.0,35.6,26.6,18.2,21,12,5,28.36,28.13,10,2,10,0.00
2013-6-23,107.0,90.2,76.0,29.7,20.9,6.0,17,9,3,28.33,28.06,15,3,15,0.00
2013-6-24,102.0,88.1,73.0,40.1,27.0,19.0,22,12,6,28.35,28.18,12,2,13,0.00
2013-6-25,106.0,88.8,74.0,42.2,31.9,21.8,32,15,6,28.45,28.22,12,2,12,0.00
2013-6-26,107.0,90.7,75.0,35.3,28.1,21.4,18,11,6,28.52,28.29,12,2,12,0.00
2013-6-27,107.0,92.5,78.0,40.8,33.4,21.1,24,14,6,28.55,28.26,13,2,15,0.00
2013-6-28,117.0,98.7,78.0,43.9,37.6,30.1,28,14,6,28.42,28.08,10,2,10,0.00
2013-6-29,119.0,102.7,87.0,49.6,37.3,28.6,22,12,5,28.28,28.04,12,2,15,0.00
2013-6-30,112.0,98.5,87.0,56.8,48.7,39.0,35,20,10,28.30,28.06,15,2,15,0.00
2013-7-1,111.0,98.9,88.0,57.5,51.0,43.5,34,22,12,28.36,28.11,13,3,17,0.00
2013-7-2,106.0,95.7,85.0,61.8,53.7,47.5,46,26,15,28.50,28.19,21,4,22,0.00
2013-7-3,109.0,95.1,84.0,54.3,49.7,41.9,33,23,12,28.38,28.06,15,4,18,0.00
2013-7-4,105.0,94.2,86.0,54.8,51.0,46.7,32,24,15,28.30,28.07,13,2,16,0.00
2013-7-5,106.0,93.5,84.0,60.2,53.8,47.8,40,27,15,28.34,28.11,10,2,14,0.00
2013-7-6,108.0,93.6,81.0,63.3,56.8,47.2,52,32,16,28.30,28.07,11,1,12,0.00
2013-7-7,109.0,93.4,86.0,62.6,57.3,49.4,44,31,15,28.28,28.10,9,1,10,0.00
2013-7-11,97.0,89.0,79.0,68.8,62.6,56.9,71,43,31,28.51,28.31,12,2,13,0.00
2013-7-12,100.0,88.2,81.0,66.8,60.9,57.0,53,41,25,28.42,28.31,20,3,20,0.00
2013-7-13,105.0,96.4,88.0,63.3,57.7,53.5,44,29,21,28.38,28.20,12,2,12,0.00
2013-7-14,92.0,88.6,86.0,58.2,56.0,54.2,38,34,29,28.33,28.30,4,0,6,0.00
2013-7-17,106.0,95.4,88.0,60.0,56.0,49.6,39,28,17,28.40,28.29,13,3,15,0.00
2013-7-18,109.0,94.6,86.0,60.0,53.8,47.8,38,26,14,28.46,28.17,18,4,18,0.00
2013-7-19,107.0,90.5,73.0,71.5,60.7,54.5,92,41,19,28.45,28.17,22,3,23,0.48
2013-7-20,101.0,89.7,77.0,71.1,65.6,59.2,82,48,29,28.43,28.16,21,4,22,0.02
2013-7-21,89.0,78.9,72.0,74.7,71.4,68.0,99,78,54,28.51,28.36,14,2,14,0.75
2013-7-22,96.0,85.0,75.0,73.8,67.9,59.4,96,60,35,28.50,28.34,9,2,11,0.00
2013-7-23,102.0,89.0,77.0,68.6,62.5,56.0,72,45,24,28.49,28.26,13,2,13,0.00
2013-7-24,106.0,93.5,82.0,63.2,59.7,55.4,51,34,21,28.40,28.17,13,2,13,0.00
2013-7-25,91.0,84.6,76.0,72.8,66.2,61.6,88,56,38,28.50,28.32,13,4,13,0.09
2013-7-26,94.0,91.5,90.0,63.7,61.6,59.5,42,37,33,28.48,28.41,14,5,19,0.00
2013-7-27,104.0,91.1,78.0,71.7,63.3,57.6,81,42,24,28.53,28.20,13,2,13,0.08
2013-7-28,106.0,94.2,86.0,63.3,53.7,42.3,45,28,13,28.34,28.13,13,3,13,0.00
2013-7-29,106.0,93.0,82.0,50.8,45.0,36.5,34,21,10,28.44,28.28,13,2,13,0.00
2013-7-30,108.0,93.5,80.0,54.7,47.8,43.1,39,22,14,28.56,28.34,10,2,10,0.00
2013-7-31,109.0,94.7,83.0,56.5,49.6,42.7,34,23,12,28.51,28.24,16,2,17,0.00
2013-8-1,103.0,94.7,89.0,60.0,55.6,51.8,38,28,19,28.40,28.24,15,5,20,0.00
2013-8-2,107.0,94.4,87.0,61.0,54.6,45.5,42,28,15,28.40,28.22,14,4,15,0.00
2013-8-3,108.0,95.1,85.0,58.1,50.7,34.3,39,24,11,28.46,28.23,13,4,13,0.00
2013-8-4,108.0,90.9,83.0,49.9,41.3,31.6,30,19,10,28.44,28.25,8,1,9,0.00
2013-8-5,100.0,89.5,82.0,60.7,49.2,30.5,40,26,13,28.49,28.29,18,2,20,0.00
2013-8-6,87.0,80.1,74.0,70.5,63.5,56.5,87,58,37,28.61,28.40,13,4,14,0.00
2013-8-7,80.0,78.3,75.0,66.3,63.7,61.4,72,61,55,28.54,28.48,10,4,10,0.00
2013-8-10,103.0,95.8,85.0,31.6,28.5,25.5,14,10,7,28.42,28.25,12,2,15,0.00
2013-8-11,106.0,90.3,74.0,49.9,38.7,26.6,30,17,12,28.50,28.19,10,1,11,0.00
2013-8-12,104.0,87.4,79.0,56.7,40.7,25.1,45,23,8,28.42,28.20,13,2,13,0.00
2013-8-13,105.0,91.9,76.0,42.2,29.7,14.4,29,12,5,28.48,28.24,10,2,12,0.00
2013-8-14,110.0,100.1,93.0,44.8,40.7,33.8,18,14,8,28.31,28.18,10,2,10,0.00
2013-8-15,110.0,95.4,80.0,64.8,54.1,42.4,59,27,12,28.44,28.20,13,3,19,0.04
2013-8-16,113.0,98.0,84.0,56.2,50.8,42.5,35,22,10,28.38,28.16,13,2,15,0.00
2013-8-17,113.0,97.0,86.0,63.9,53.4,42.7,45,25,12,28.48,28.12,16,2,16,0.00
2013-8-18,111.0,94.7,83.0,62.9,53.1,40.2,51,27,10,28.47,28.18,18,2,19,0.00
2013-8-19,110.0,95.4,86.0,59.8,52.2,43.5,40,25,12,28.42,28.18,10,2,12,0.00
2013-8-20,109.0,95.4,84.0,55.2,50.5,41.9,36,23,12,28.38,28.14,22,3,22,0.00
2013-8-21,101.0,91.0,87.0,59.2,55.4,50.1,36,31,21,28.43,28.27,14,2,18,0.00
2013-8-22,103.0,92.6,83.0,58.5,54.1,49.2,40,28,18,28.42,28.20,12,2,12,0.00
2013-8-23,102.0,90.3,80.0,62.2,55.5,47.1,53,33,17,28.40,28.15,12,2,12,0.00
2013-8-24,99.0,86.7,78.0,67.9,60.3,54.3,71,43,25,28.50,28.27,17,3,17,0.00
2013-8-25,86.0,82.6,79.0,68.1,63.9,58.4,67,54,42,28.53,28.42,13,3,15,0.00
2013-8-26,99.0,84.5,75.0,73.8,64.5,58.6,90,54,29,28.49,28.26,10,2,14,0.16
2013-8-27,108.0,90.2,77.0,71.4,62.7,47.0,83,46,15,28.43,28.14,16,2,16,0.00
2013-8-28,106.0,93.1,75.0,72.2,58.0,51.0,90,35,19,28.52,28.17,16,3,16,0.15
2013-8-29,99.0,83.8,75.0,72.8,68.3,62.1,88,63,34,28.59,28.42,12,2,12,0.00
2013-8-30,100.0,85.4,79.0,72.7,68.4,61.2,79,59,32,28.58,28.37,12,2,12,0.00
2013-8-31,89.0,80.2,78.0,72.5,70.5,60.7,81,73,40,28.52,28.38,8,2,14,0.00
2013-9-1,104.0,96.8,89.0,63.1,59.6,56.4,38,30,23,28.34,28.20,15,5,15,0.00
2013-9-2,102.0,90.4,80.0,66.0,62.2,58.6,57,40,27,28.41,28.22,16,3,16,0.00
2013-9-3,109.0,93.6,75.0,72.2,59.3,50.4,88,37,15,28.42,28.17,10,3,10,0.06
2013-9-4,109.0,95.7,85.0,60.6,53.2,42.2,44,26,11,28.44,28.20,12,4,12,0.00
2013-9-5,111.0,96.3,80.0,61.3,49.5,38.5,48,23,9,28.42,28.18,13,3,13,0.00
2013-9-6,109.0,95.2,86.0,60.8,51.8,43.7,42,25,12,28.44,28.16,12,5,12,0.00
2013-9-7,92.0,84.9,80.0,63.7,59.7,54.3,56,43,29,28.50,28.32,12,4,12,0.00
2013-9-8,89.0,81.2,72.0,72.2,64.2,57.1,95,58,38,28.50,28.28,14,4,15,0.23
2013-9-9,84.0,76.0,71.0,74.1,68.8,60.7,100,80,47,28.42,28.29,13,4,13,0.58
2013-9-10,86.0,76.2,71.0,70.8,66.4,60.8,94,73,48,28.49,28.35,20,4,20,0.01
2013-9-11,93.0,80.9,69.0,69.1,61.8,53.4,93,57,28,28.55,28.36,12,2,12,0.00
2013-9-12,100.0,86.7,72.0,61.6,53.2,40.9,66,35,15,28.47,28.20,10,2,10,0.00
2013-9-13,101.0,87.7,74.0,61.3,56.5,51.4,55,36,21,28.34,28.07,12,2,12,0.00
2013-9-14,104.0,91.0,80.0,60.4,55.8,46.4,51,32,15,28.25,28.06,16,6,16,0.00
2013-9-15,105.0,90.0,76.0,58.9,52.8,43.0,52,30,14,28.31,28.12,13,2,13,0.00
2013-9-16,106.0,94.0,82.0,56.2,52.6,47.5,40,25,15,28.32,28.12,17,5,17,0.00
2013-9-17,106.0,93.9,88.0,57.6,54.0,42.7,34,27,17,28.28,28.05,17,6,17,0.00
2013-9-18,104.0,90.5,81.0,46.4,36.5,19.1,27,17,5,28.25,28.06,13,4,13,0.00
2013-9-19,102.0,85.8,72.0,48.4,36.0,21.3,41,19,6,28.35,28.13,13,2,13,0.00
2013-9-20,102.0,86.6,70.0,48.3,42.2,29.6,40,22,13,28.39,28.16,12,2,12,0.00
2013-9-21,102.0,89.1,81.0,55.7,50.5,44.8,40,28,16,28.37,28.11,14,5,14,0.00
2013-9-22,87.0,80.4,66.0,58.7,37.9,6.5,42,24,5,28.37,28.19,17,5,17,0.00
2013-9-23,93.0,77.3,60.0,40.7,30.3,21.3,45,20,8,28.48,28.31,12,2,12,0.00
2013-9-24,98.0,80.1,64.0,42.1,34.2,25.8,40,21,9,28.55,28.27,9,2,9,0.00
2013-9-25,95.0,81.4,70.0,46.6,38.6,27.3,39,23,9,28.38,28.11,12,3,12,0.00
2013-9-26,94.0,81.0,72.0,48.4,35.8,25.1,29,20,12,28.33,28.10,17,7,17,0.00
2013-9-27,83.0,74.0,66.0,32.8,28.1,17.6,28,19,10,28.46,28.32,13,4,13,0.00
2013-9-28,92.0,81.4,69.0,32.8,22.7,12.7,22,12,6,28.64,28.45,9,2,9,0.00
2013-9-29,90.0,70.3,61.0,36.9,31.3,22.1,37,25,10,28.67,28.53,8,1,8,0.00
2013-10-3,92.0,80.5,73.0,43.8,38.7,30.6,35,24,12,28.35,28.19,16,3,16,0.00
2013-10-4,87.0,75.1,63.0,47.7,28.7,6.9,52,23,6,28.59,28.36,13,4,13,0.00
2013-10-5,85.0,73.9,63.0,24.5,15.9,7.6,18,12,6,28.74,28.55,12,4,12,0.00
2013-10-6,92.0,76.7,61.0,28.2,18.4,5.0,21,12,4,28.72,28.47,10,3,10,0.00
2013-10-7,92.0,77.4,61.0,31.0,23.8,18.3,28,15,8,28.62,28.36,17,3,17,0.00
2013-10-8,91.0,76.9,63.0,37.1,29.5,23.3,30,19,11,28.48,28.24,13,3,13,0.00
2013-10-9,85.0,75.3,69.0,48.5,36.1,26.1,48,25,18,28.33,28.20,15,7,15,0.00
2013-10-10,70.0,62.9,53.0,49.3,40.0,31.7,84,45,26,28.61,28.32,15,4,15,0.01
2013-10-11,77.0,64.9,52.0,42.2,37.1,32.4,63,38,21,28.66,28.48,10,2,10,0.00
2013-10-12,83.0,68.3,52.0,41.5,37.0,32.1,64,34,17,28.61,28.38,9,1,9,0.00
2013-10-13,83.0,70.0,56.0,43.4,36.7,32.1,55,31,17,28.58,28.40,12,3,12,0.00
2013-10-14,82.0,70.4,59.0,47.0,36.7,24.9,61,32,14,28.65,28.46,10,2,10,0.00
2013-10-15,80.0,67.9,54.0,37.1,30.6,23.9,47,26,14,28.59,28.40,12,2,12,0.00
2013-10-16,80.0,66.8,52.0,35.8,29.6,25.0,46,26,15,28.69,28.52,9,2,9,0.00
2013-10-17,80.0,67.4,52.0,37.4,29.7,23.9,48,26,14,28.70,28.44,12,2,12,0.00
2013-10-18,81.0,67.6,52.0,36.7,29.0,21.5,49,26,12,28.64,28.46,10,1,10,0.00
2013-10-19,84.0,69.4,55.0,37.9,25.4,14.1,36,21,8,28.67,28.44,9,2,9,0.00
2013-10-20,82.0,68.0,53.0,32.8,25.4,16.8,42,22,10,28.61,28.37,10,2,10,0.00
2013-10-21,85.0,68.7,52.0,35.4,26.4,17.6,46,23,9,28.62,28.43,10,1,10,0.00
2013-10-22,88.0,72.0,56.0,36.3,26.6,15.5,38,21,7,28.67,28.40,10,2,10,0.00
2013-10-23,90.0,75.3,62.0,37.9,27.3,21.3,30,18,9,28.54,28.32,16,2,16,0.00
2013-10-24,87.0,74.4,63.0,36.1,27.7,19.8,36,19,9,28.56,28.36,15,3,15,0.00
2013-10-25,86.0,71.1,56.0,37.2,29.2,19.8,40,22,11,28.67,28.48,9,1,9,0.00
2013-10-26,88.0,72.9,57.0,38.2,34.5,29.2,44,26,14,28.73,28.48,10,1,10,0.00
2013-10-27,87.0,73.7,60.0,40.5,34.1,26.9,44,25,13,28.57,28.28,12,2,12,0.00
2013-10-28,82.0,72.0,61.0,44.0,36.8,28.7,42,28,18,28.44,28.31,15,5,15,0.00
2013-10-29,72.0,63.9,55.0,45.2,40.1,36.2,62,43,29,28.57,28.44,17,3,17,0.00
2013-10-30,72.0,60.9,49.0,40.2,34.5,28.8,65,39,22,28.68,28.53,12,2,12,0.00
2013-10-31,73.0,60.9,49.0,35.6,31.4,27.5,57,34,20,28.78,28.59,12,2,12,0.00
2013-11-1,77.0,63.6,48.0,37.0,30.9,25.8,59,32,15,28.81,28.57,8,2,8,0.00
2013-11-2,84.0,68.5,51.0,36.1,27.0,14.1,45,25,8,28.69,28.36,15,3,15,0.00
2013-11-3,79.0,68.7,59.0,46.6,32.6,25.6,47,27,16,28.49,28.30,10,2,10,0.00
2013-11-4,77.0,65.4,53.0,50.3,36.5,28.0,62,36,20,28.46,28.27,17,4,17,0.01
2013-11-5,73.0,62.7,52.0,48.5,42.3,23.7,80,50,24,28.79,28.45,12,2,12,0.00
2013-11-6,74.0,61.7,48.0,34.4,20.1,5.5,51,24,8,28.93,28.73,7,2,7,0.00
2013-11-7,81.0,66.2,52.0,25.6,13.7,3.3,25,14,6,28.85,28.58,16,3,16,0.00
2013-11-8,82.0,66.6,54.0,35.4,28.4,15.0,35,25,15,28.72,28.49,12,1,12,0.00
2013-11-9,80.0,66.6,53.0,40.2,35.3,31.8,59,34,18,28.73,28.54,13,2,13,0.00
2013-11-10,79.0,66.9,55.0,39.5,36.9,33.4,51,34,21,28.76,28.55,7,1,7,0.00
2013-11-11,85.0,70.7,55.0,42.7,36.6,18.5,53,31,10,28.71,28.48,9,1,9,0.00
2013-11-12,88.0,75.9,60.0,38.6,30.8,23.7,30,20,10,28.77,28.57,17,4,17,0.00
2013-11-13,80.0,75.3,70.0,43.2,39.9,34.4,34,28,22,28.72,28.51,20,7,20,0.00
2013-11-14,79.0,67.7,57.0,47.6,43.0,40.4,61,42,27,28.65,28.41,9,1,9,0.00
2013-11-15,80.0,69.2,59.0,51.7,43.9,37.4,64,42,24,28.44,28.13,15,6,15,0.00
2013-11-16,71.0,63.4,58.0,53.8,47.9,41.0,79,59,39,28.54,28.32,13,2,13,0.00
2013-11-17,71.0,63.2,53.0,49.4,45.7,41.7,73,54,39,28.69,28.54,10,3,10,0.00
2013-11-18,76.0,64.6,54.0,48.0,44.9,40.6,73,51,30,28.73,28.52,7,1,7,0.00
2013-11-19,74.0,64.2,53.0,47.9,45.4,43.3,76,52,36,28.64,28.42,9,1,9,0.00
2013-11-20,72.0,64.1,58.0,47.0,44.4,39.9,60,49,38,28.51,28.40,9,2,9,0.00
2013-11-21,69.0,62.2,55.0,57.6,46.2,40.0,95,57,44,28.56,28.47,13,3,13,0.30
2013-11-22,58.0,54.8,52.0,58.0,54.6,52.0,100,99,94,28.67,28.45,12,2,12,1.48
2013-11-23,58.0,53.4,50.0,52.2,46.8,39.6,100,79,56,28.76,28.61,17,6,17,0.41
2013-11-24,59.0,52.4,44.0,48.8,42.4,37.7,92,70,51,28.87,28.75,12,2,12,0.03
2013-11-25,61.0,50.9,42.0,47.0,42.7,38.9,100,76,48,28.91,28.78,9,1,9,0.00
2013-11-26,68.0,58.5,45.0,45.7,37.0,25.6,96,52,24,28.95,28.75,20,4,20,0.00
2013-11-27,68.0,62.8,60.0,28.1,25.1,21.6,27,24,20,28.79,28.61,20,8,20,0.00
2013-11-28,61.0,60.8,60.0,23.9,23.1,22.0,24,23,23,28.67,28.65,13,9,13,0.00
2013-12-1,69.0,61.5,54.0,49.7,45.1,42.3,75,56,38,28.87,28.71,16,2,16,0.00
2013-12-2,67.0,55.8,46.0,46.0,42.3,37.4,91,63,36,28.81,28.56,8,1,8,0.00
2013-12-3,69.0,58.3,46.0,45.4,39.9,33.4,92,54,27,28.57,28.28,12,3,12,0.00
2013-12-4,61.0,55.8,45.0,46.5,36.5,26.7,63,49,34,28.63,28.32,18,4,18,0.00
2013-12-5,54.0,45.2,36.0,30.7,22.3,15.1,72,42,24,28.85,28.62,12,2,12,0.00
2013-12-6,53.0,41.7,31.0,26.1,21.1,15.5,73,46,24,28.93,28.77,9,1,9,0.00
2013-12-7,56.0,44.8,31.0,34.0,27.1,21.8,91,53,29,28.86,28.63,12,3,12,0.00
2013-12-8,57.0,51.3,45.0,39.2,30.1,19.0,67,46,29,28.79,28.67,12,3,12,0.00
2013-12-9,47.0,42.2,30.0,19.9,14.2,7.8,63,33,23,29.05,28.94,9,2,9,0.00
2013-12-10,60.0,46.2,36.0,19.2,12.9,6.0,43,27,13,29.05,28.75,9,1,9,0.00
2013-12-11,68.0,55.2,39.0,28.1,22.2,17.4,52,30,16,28.89,28.71,13,2,13,0.00
2013-12-12,70.0,62.4,53.0,31.5,27.4,22.9,42,27,20,28.80,28.64,16,5,16,0.00
2013-12-13,61.0,52.8,43.0,31.9,28.4,24.1,60,40,27,28.87,28.71,9,2,9,0.00
2013-12-14,65.0,51.7,39.0,35.5,27.8,15.4,79,44,20,28.98,28.83,8,1,8,0.01
2013-12-15,67.0,54.3,42.0,29.0,23.1,16.4,48,31,16,29.02,28.78,7,1,7,0.00
2013-12-16,71.0,57.7,46.0,31.1,28.4,25.1,54,34,20,28.89,28.70,6,1,6,0.00
2013-12-17,76.0,59.8,47.0,37.4,31.6,27.0,58,37,17,28.88,28.63,6,1,6,0.00
2013-12-18,74.0,60.8,51.0,39.5,33.7,26.4,55,38,17,28.70,28.44,10,1,10,0.00
2013-12-19,69.0,59.0,50.0,52.9,37.3,27.7,96,48,24,28.48,28.27,15,6,15,0.04
2013-12-20,57.0,52.8,48.0,52.2,47.3,43.8,97,82,63,28.50,28.32,16,4,16,0.24
2013-12-21,56.0,49.1,43.0,47.9,41.3,30.7,100,77,38,28.75,28.49,12,2,12,0.00
2013-12-22,59.0,47.9,37.0,44.0,38.3,35.6,100,72,43,28.98,28.75,8,1,8,0.00
2013-12-23,65.0,52.0,40.0,41.1,34.7,27.3,92,57,25,29.06,28.87,9,1,9,0.00
2013-12-24,67.0,54.3,43.0,35.4,31.5,25.2,69,44,22,28.92,28.71,7,1,7,0.00
2013-12-25,67.0,56.1,43.0,35.3,26.0,9.7,69,36,13,28.96,28.75,10,1,10,0.00
2013-12-26,67.0,56.8,48.0,28.7,21.5,12.5,47,26,16,28.91,28.72,15,2,15,0.00
2013-12-27,70.0,55.3,43.0,30.2,25.3,18.6,52,33,15,28.91,28.68,8,1,8,0.00
2013-12-28,66.0,54.1,43.0,34.3,28.7,20.7,60,39,20,28.79,28.56,9,1,9,0.00
2013-12-29,67.0,53.2,40.0,37.2,29.4,18.1,71,43,22,28.82,28.60,12,2,12,0.00
2013-12-30,64.0,52.0,40.0,27.3,22.3,17.4,54,33,17,28.94,28.79,7,1,7,0.00
2013-12-31,67.0,52.4,39.0,32.1,27.3,21.8,63,40,22,28.93,28.69,7,1,7,0.00
2014-1-1,66.0,53.2,39.0,35.0,30.8,27.4,71,44,25,28.86,28.67,7,1,7,0.00
2014-1-2,74.0,59.0,43.0,36.1,27.7,20.1,66,36,14,28.86,28.61,13,2,13,0.00